createdAt,value
2018-09-03T00:03:40.303Z,9.43
2018-09-03T00:08:43.416Z,11.37
2018-09-03T00:13:46.564Z,10.30
2018-09-03T00:18:49.682Z,11.10
2018-09-03T00:23:52.798Z,10.93
2018-09-03T00:28:55.903Z,9.87
2018-09-03T00:34:04.347Z,10.10
2018-09-03T00:39:12.860Z,9.90
2018-09-03T00:44:21.312Z,10.70
2018-09-03T00:49:24.428Z,11.07
2018-09-03T00:54:27.571Z,11.13
2018-09-03T00:59:30.690Z,10.93
2018-09-03T01:04:33.792Z,11.33
2018-09-03T01:09:36.904Z,10.03
2018-09-03T01:14:40.016Z,11.70
2018-09-03T01:19:43.229Z,10.90
2018-09-03T01:24:46.349Z,10.63
2018-09-03T01:29:49.468Z,11.03
2018-09-03T01:34:52.588Z,11.10
2018-09-03T01:39:55.699Z,9.53
2018-09-03T01:44:58.820Z,11.00
2018-09-03T01:50:01.978Z,12.47
2018-09-03T01:55:05.628Z,10.97
2018-09-03T02:00:08.741Z,12.27
2018-09-03T02:05:11.860Z,10.90
2018-09-03T02:10:14.985Z,11.73
2018-09-03T02:15:18.096Z,9.58
2018-09-03T02:20:21.196Z,11.83
2018-09-03T02:25:24.512Z,11.87
2018-09-03T02:30:27.617Z,10.63
2018-09-03T02:35:30.742Z,13.27
2018-09-03T02:40:33.848Z,11.70
2018-09-03T02:45:36.953Z,11.07
2018-09-03T02:50:40.071Z,12.73
2018-09-03T02:55:43.184Z,11.40
2018-09-03T03:00:46.295Z,12.10
2018-09-03T03:05:49.419Z,12.90
2018-09-03T03:10:52.532Z,11.67
2018-09-03T03:15:55.656Z,12.37
2018-09-03T03:20:58.772Z,14.23
2018-09-03T03:26:01.896Z,11.87
2018-09-03T03:31:05.820Z,12.35
2018-09-03T03:36:08.953Z,11.93
2018-09-03T03:41:12.081Z,13.68
2018-09-03T03:46:15.197Z,11.90
2018-09-03T03:51:18.309Z,10.93
2018-09-03T03:56:21.423Z,13.25
2018-09-03T04:01:24.548Z,11.27
2018-09-03T04:06:27.864Z,12.47
2018-09-03T04:11:30.984Z,12.10
2018-09-03T04:16:34.156Z,12.33
2018-09-03T04:21:37.266Z,12.67
2018-09-03T04:26:40.429Z,13.27
2018-09-03T04:31:43.536Z,12.30
2018-09-03T04:36:46.659Z,13.17
2018-09-03T04:41:49.773Z,12.87
2018-09-03T04:46:53.780Z,13.67
2018-09-03T04:51:56.900Z,13.13
2018-09-03T04:57:00.014Z,13.80
2018-09-03T05:02:03.132Z,11.50
2018-09-03T05:07:06.336Z,12.77
2018-09-03T05:12:09.537Z,13.43
2018-09-03T05:17:12.727Z,11.60
2018-09-03T05:22:15.828Z,12.43
2018-09-03T05:27:18.948Z,10.85
2018-09-03T05:32:22.069Z,12.83
2018-09-03T05:37:25.207Z,11.47
2018-09-03T05:42:28.386Z,13.37
2018-09-03T05:47:31.472Z,12.90
2018-09-03T05:52:34.593Z,10.80
2018-09-03T05:57:37.696Z,11.77
2018-09-03T06:02:40.811Z,10.47
2018-09-03T06:07:43.928Z,12.83
2018-09-03T06:12:47.129Z,13.27
2018-09-03T06:17:50.216Z,13.40
2018-09-03T06:22:53.324Z,12.97
2018-09-03T06:27:56.427Z,12.53
2018-09-03T06:32:59.603Z,13.03
2018-09-03T06:38:02.668Z,14.17
2018-09-03T06:43:06.037Z,12.73
2018-09-03T06:48:09.153Z,13.10
2018-09-03T06:53:12.264Z,14.23
2018-09-03T06:58:15.379Z,13.17
2018-09-03T07:03:18.497Z,13.50
2018-09-03T07:08:21.608Z,13.53
2018-09-03T07:13:24.807Z,13.00
2018-09-03T07:18:27.904Z,14.50
2018-09-03T07:23:31.011Z,15.13
2018-09-03T07:28:34.136Z,14.73
2018-09-03T07:33:37.248Z,14.90
2018-09-03T07:38:40.424Z,14.80
2018-09-03T07:43:43.550Z,12.20
2018-09-03T07:48:46.727Z,12.67
2018-09-03T07:53:49.872Z,14.43
2018-09-03T07:58:53.004Z,12.60
2018-09-03T08:03:56.120Z,12.63
2018-09-03T08:08:59.248Z,13.63
2018-09-03T08:14:02.365Z,12.87
2018-09-03T08:19:05.852Z,12.97
2018-09-03T08:24:08.964Z,11.80
2018-09-03T08:29:12.136Z,11.77
2018-09-03T08:34:15.260Z,10.13
2018-09-03T08:39:18.376Z,12.13
2018-09-03T08:44:21.488Z,10.28
2018-09-03T08:49:24.600Z,12.50
2018-09-03T08:54:27.956Z,11.57
2018-09-03T08:59:31.188Z,11.57
2018-09-03T09:04:34.327Z,11.90
2018-09-03T09:09:37.444Z,12.40
2018-09-03T09:14:40.552Z,10.30
2018-09-03T09:19:44.684Z,10.70
2018-09-03T09:24:47.796Z,12.20
2018-09-03T09:29:50.916Z,10.20
2018-09-03T09:34:54.031Z,10.20
2018-09-03T09:39:57.152Z,7.53
2018-09-03T09:45:00.260Z,8.57
2018-09-03T09:50:03.368Z,9.60
2018-09-03T09:55:06.480Z,8.27
2018-09-03T10:00:10.785Z,5.95
2018-09-03T10:05:13.952Z,6.87
2018-09-03T10:10:17.220Z,5.33
2018-09-03T10:15:20.341Z,6.28
2018-09-03T10:20:23.450Z,5.73
2018-09-03T10:25:26.564Z,5.00
2018-09-03T10:30:29.672Z,5.30
2018-09-03T10:35:32.787Z,4.67
2018-09-03T10:40:35.900Z,4.83
2018-09-03T10:45:43.121Z,4.97
2018-09-03T10:50:46.440Z,5.27
2018-09-03T10:55:49.544Z,5.07
2018-09-03T11:00:52.657Z,4.37
2018-09-03T11:05:55.774Z,5.30
2018-09-03T11:10:58.887Z,5.00
2018-09-03T11:16:02.008Z,3.93
2018-09-03T11:21:05.932Z,3.13
2018-09-03T11:26:09.017Z,3.97
2018-09-03T11:31:12.127Z,3.08
2018-09-03T11:36:15.268Z,3.63
2018-09-03T11:41:18.376Z,3.87
2018-09-03T11:46:21.492Z,3.27
2018-09-03T11:51:24.605Z,3.50
2018-09-03T11:56:27.707Z,3.20
2018-09-03T12:01:30.823Z,4.27
2018-09-03T12:06:33.988Z,3.87
2018-09-03T12:11:37.164Z,3.70
2018-09-03T12:16:40.283Z,4.27
2018-09-03T12:21:43.399Z,4.10
2018-09-03T12:31:49.693Z,4.40
2018-09-03T12:36:52.832Z,4.43
2018-09-03T12:41:55.909Z,4.10
2018-09-03T12:46:59.021Z,4.43
2018-09-03T12:52:02.137Z,3.87
2018-09-03T12:57:05.456Z,5.07
2018-09-03T13:02:09.372Z,4.17
2018-09-03T13:07:12.496Z,4.75
2018-09-03T13:12:15.600Z,3.97
2018-09-03T13:17:18.724Z,5.10
2018-09-03T13:22:21.840Z,3.85
2018-09-03T13:27:24.953Z,4.53
2018-09-03T13:32:28.182Z,5.03
2018-09-03T13:37:31.284Z,4.67
2018-09-03T13:42:34.393Z,4.70
2018-09-03T13:47:37.500Z,5.07
2018-09-03T13:52:40.608Z,5.37
2018-09-03T13:57:43.776Z,3.70
2018-09-03T14:02:46.900Z,3.97
2018-09-03T14:07:50.004Z,4.80
2018-09-03T14:18:00.192Z,4.63
2018-09-03T14:23:07.192Z,4.20
2018-09-03T14:28:16.553Z,3.73
2018-09-03T14:33:20.171Z,3.63
2018-09-03T14:38:28.463Z,4.13
2018-09-03T14:43:34.535Z,5.30
2018-09-03T14:48:44.514Z,5.20
2018-09-03T14:53:51.366Z,4.80
2018-09-03T14:58:57.064Z,4.50
2018-09-03T15:04:00.194Z,5.40
2018-09-03T15:09:03.892Z,5.70
2018-09-03T15:14:06.996Z,5.93
2018-09-03T15:19:10.130Z,5.20
2018-09-03T15:24:13.232Z,6.10
2018-09-03T15:29:16.343Z,5.62
2018-09-03T15:34:19.455Z,5.20
2018-09-03T15:39:22.573Z,5.10
2018-09-03T15:44:25.708Z,4.60
2018-09-03T15:49:28.831Z,6.30
2018-09-03T15:54:31.932Z,5.73
2018-09-03T15:59:35.048Z,5.40
2018-09-03T16:04:38.152Z,5.57
2018-09-03T16:09:41.260Z,5.67
2018-09-03T16:14:44.363Z,5.17
2018-09-03T16:19:47.537Z,7.00
2018-09-03T16:24:50.641Z,6.03
2018-09-03T16:29:53.765Z,5.60
2018-09-03T16:34:56.877Z,4.73
2018-09-03T16:39:59.988Z,4.80
2018-09-03T16:45:03.109Z,5.13
2018-09-03T16:50:06.345Z,4.97
2018-09-03T16:55:09.586Z,4.90
2018-09-03T17:00:12.639Z,4.63
2018-09-03T17:05:15.828Z,5.00
2018-09-03T17:10:18.936Z,5.03
2018-09-03T17:15:22.054Z,6.13
2018-09-03T17:20:25.246Z,5.13
2018-09-03T17:25:28.284Z,5.23
2018-09-03T17:30:31.401Z,4.50
2018-09-03T17:35:34.504Z,5.47
2018-09-03T17:40:37.620Z,6.03
2018-09-03T17:45:40.786Z,4.57
2018-09-03T17:50:43.859Z,5.70
2018-09-03T17:55:46.965Z,5.50
2018-09-03T18:00:50.092Z,4.10
2018-09-03T18:05:53.216Z,5.53
2018-09-03T18:10:56.328Z,4.53
2018-09-03T18:15:59.444Z,5.20
2018-09-03T18:21:02.559Z,5.30
2018-09-03T18:26:05.912Z,5.47
2018-09-03T18:31:09.020Z,4.50
2018-09-03T18:36:12.149Z,4.20
2018-09-03T18:41:15.261Z,4.47
2018-09-03T18:46:18.385Z,4.00
2018-09-03T18:51:21.488Z,4.07
2018-09-03T18:56:24.590Z,4.20
2018-09-03T19:01:27.704Z,4.37
2018-09-03T19:06:30.817Z,4.40
2018-09-03T19:11:33.952Z,4.50
2018-09-03T19:16:37.073Z,4.53
2018-09-03T19:21:40.176Z,4.37
2018-09-03T19:26:43.296Z,4.33
2018-09-03T19:31:46.409Z,4.83
2018-09-03T19:36:49.524Z,4.30
2018-09-03T19:41:52.636Z,5.37
2018-09-03T19:46:55.748Z,5.40
2018-09-03T19:51:58.947Z,4.72
2018-09-03T19:57:02.292Z,4.17
2018-09-03T20:02:05.423Z,5.03
2018-09-03T20:07:08.572Z,5.20
2018-09-03T20:12:11.695Z,4.90
2018-09-03T20:17:15.129Z,4.27
2018-09-03T20:22:18.612Z,5.10
2018-09-03T20:27:21.733Z,4.70
2018-09-03T20:32:24.840Z,4.30
2018-09-03T20:37:27.947Z,4.40
2018-09-03T20:42:31.064Z,5.27
2018-09-03T20:47:34.176Z,4.60
2018-09-03T20:52:37.288Z,5.23
2018-09-03T20:57:40.399Z,4.70
2018-09-03T21:02:43.529Z,4.87
2018-09-03T21:07:46.632Z,5.20
2018-09-03T21:12:49.867Z,5.43
2018-09-03T21:17:52.979Z,5.60
2018-09-03T21:22:56.101Z,5.20
2018-09-03T21:27:59.207Z,5.17
2018-09-03T21:33:02.318Z,5.10
2018-09-03T21:38:05.917Z,5.95
2018-09-03T21:43:09.020Z,4.80
2018-09-03T21:48:12.137Z,4.33
2018-09-03T21:53:15.247Z,6.00
2018-09-03T21:58:18.364Z,5.12
2018-09-03T22:03:21.472Z,6.03
2018-09-03T22:08:24.589Z,6.97
2018-09-03T22:13:27.704Z,4.90
2018-09-03T22:18:30.817Z,5.10
2018-09-03T22:23:33.920Z,5.40
2018-09-03T22:28:37.032Z,5.33
2018-09-03T22:33:40.141Z,5.07
2018-09-03T22:38:43.248Z,6.40
2018-09-03T22:43:46.360Z,5.90
2018-09-03T22:48:49.476Z,5.77
2018-09-03T22:53:52.903Z,5.17
2018-09-03T22:58:56.000Z,6.10
2018-09-03T23:03:59.110Z,4.50
2018-09-03T23:09:02.228Z,5.20
2018-09-03T23:14:06.400Z,4.90
2018-09-03T23:19:09.503Z,5.73
2018-09-03T23:24:12.617Z,5.00
2018-09-03T23:29:15.719Z,5.10
2018-09-03T23:34:18.823Z,5.60
2018-09-03T23:39:21.928Z,6.50
2018-09-03T23:44:25.069Z,5.20
2018-09-03T23:49:28.171Z,6.33
2018-09-03T23:54:31.277Z,5.40
2018-09-03T23:59:34.883Z,5.63
